Time;durP1;ratioP1;P1;durP2;ratioP2;P2;SDS_P1;SDS_P2;PMS_P1;PMS_P2;Temp;Humidity;BMP_temperature;BMP_pressure;BME280_temperature;BME280_humidity;BME280_pressure;Samples;Min_cycle;Max_cycle;Signal;HPM_P1;HPM_P2
2023/05/27 00:01:29;;;;;;;;;;;;;;;;;;5050394;28;19956;-58
2023/05/27 00:03:55;;;;;;;;;;;;;;;;;;5050892;28;19978;-58
2023/05/27 00:06:21;;;;;;;;;;;;;;;;;;5050248;28;19993;-58
2023/05/27 00:08:47;;;;;;;;;;;;;;;;;;5050281;28;19944;-58
2023/05/27 00:11:13;;;;;;;;;;;;;;;;;;5049869;28;19913;-58
2023/05/27 00:13:39;;;;;;;;;;;;;;;;;;5050282;28;20411;-58
2023/05/27 00:16:05;;;;;;;;;;;;;;;;;;5050134;28;19952;-57
2023/05/27 00:18:32;;;;;;;;;;;;;;;;;;5049941;28;19913;-57
2023/05/27 00:20:58;;;;;;;;;;;;;;;;;;5050044;28;20410;-58
2023/05/27 00:23:24;;;;;;;;;;;;;;;;;;5050058;28;19971;-57
2023/05/27 00:25:50;;;;;;;;;;;;;;;;;;5049154;28;20279;-58
2023/05/27 00:28:16;;;;;;;;;;;;;;;;;;5049741;28;19956;-57
2023/05/27 00:30:42;;;;;;;;;;;;;;;;;;5050141;28;19989;-58
2023/05/27 00:33:08;;;;;;;;;;;;;;;;;;5050301;28;19931;-57
2023/05/27 00:35:34;;;;;;;;;;;;;;;;;;5049235;28;19909;-57
2023/05/27 00:38:00;;;;;;;;;;;;;;;;;;5049827;28;19909;-57
2023/05/27 00:40:26;;;;;;;;;;;;;;;;;;5046123;28;19948;-57
2023/05/27 00:42:52;;;;;;;;;;;;;;;;;;5027295;28;20384;-58
2023/05/27 00:45:18;;;;;;;;;;;;;;;;;;5040914;28;19940;-57
2023/05/27 00:47:44;;;;;;;;;;;;;;;;;;5042407;28;19989;-58
2023/05/27 00:50:10;;;;;;;;;;;;;;;;;;5040362;28;20083;-57
2023/05/27 00:52:36;;;;;;;;;;;;;;;;;;5047241;28;20345;-57
2023/05/27 00:55:02;;;;;;;;;;;;;;;;;;5045186;28;19912;-57
2023/05/27 00:57:28;;;;;;;;;;;;;;;;;;5046977;28;19999;-58
2023/05/27 00:59:54;;;;;;;;;;;;;;;;;;5046063;28;19944;-58
2023/05/27 01:02:20;;;;;;;;;;;;;;;;;;5044960;28;20003;-57
2023/05/27 01:04:46;;;;;;;;;;;;;;;;;;5047126;28;19913;-58
2023/05/27 01:07:12;;;;;;;;;;;;;;;;;;5043332;28;20373;-57
2023/05/27 01:09:38;;;;;;;;;;;;;;;;;;5045790;28;20019;-58
2023/05/27 01:12:05;;;;;;;;;;;;;;;;;;5046970;28;19936;-58
2023/05/27 01:14:31;;;;;;;;;;;;;;;;;;5047614;28;19912;-58
2023/05/27 01:16:56;;;;;;;;;;;;;;;;;;5045311;28;19989;-58
2023/05/27 01:19:23;;;;;;;;;;;;;;;;;;5046683;28;20002;-58
2023/05/27 01:21:50;;;;;;;;;;;;;;;;;;5045249;28;19991;-58
2023/05/27 01:24:16;;;;;;;;;;;;;;;;;;5045047;28;19912;-57
2023/05/27 01:26:42;;;;;;;;;;;;;;;;;;5047022;28;20372;-58
2023/05/27 01:29:08;;;;;;;;;;;;;;;;;;5044793;28;20002;-58
2023/05/27 01:31:35;;;;;;;;;;;;;;;;;;5046650;28;19909;-58
2023/05/27 01:34:01;;;;;;;;;;;;;;;;;;5047548;28;19995;-57
2023/05/27 01:36:27;;;;;;;;;;;;;;;;;;5044588;28;20550;-58
2023/05/27 01:38:53;;;;;;;;;;;;;;;;;;5047161;28;19952;-57
2023/05/27 01:41:19;;;;;;;;;;;;;;;;;;5045183;28;19952;-57
2023/05/27 01:43:44;;;;;;;;;;;;;;;;;;5046322;28;19986;-58
2023/05/27 01:46:10;;;;;;;;;;;;;;;;;;5046148;28;19984;-58
2023/05/27 01:48:36;;;;;;;;;;;;;;;;;;5044269;28;19948;-58
2023/05/27 01:51:02;;;;;;;;;;;;;;;;;;5042399;28;19955;-57
2023/05/27 01:53:28;;;;;;;;;;;;;;;;;;5043483;28;19956;-58
2023/05/27 01:55:54;;;;;;;;;;;;;;;;;;5043400;28;19960;-57
2023/05/27 01:58:20;;;;;;;;;;;;;;;;;;5046127;28;20360;-58
2023/05/27 02:00:46;;;;;;;;;;;;;;;;;;5039990;28;19913;-57
2023/05/27 02:03:12;;;;;;;;;;;;;;;;;;5026773;28;19959;-58
2023/05/27 02:05:38;;;;;;;;;;;;;;;;;;5040380;28;19913;-58
2023/05/27 02:08:04;;;;;;;;;;;;;;;;;;5042454;28;19909;-57
2023/05/27 02:10:30;;;;;;;;;;;;;;;;;;5038860;28;19971;-57
2023/05/27 02:12:56;;;;;;;;;;;;;;;;;;5047287;28;19912;-57
2023/05/27 02:15:23;;;;;;;;;;;;;;;;;;5046666;28;19948;-58
2023/05/27 02:17:54;;;;;;;;;;;;;;;;;;5044285;28;19916;-58
2023/05/27 02:20:20;;;;;;;;;;;;;;;;;;5045607;28;20276;-57
2023/05/27 02:22:46;;;;;;;;;;;;;;;;;;5049030;28;19951;-57
2023/05/27 02:25:12;;;;;;;;;;;;;;;;;;5046849;28;19943;-58
2023/05/27 02:27:38;;;;;;;;;;;;;;;;;;5050032;28;20375;-58
2023/05/27 02:30:04;;;;;;;;;;;;;;;;;;5048957;28;19997;-58
2023/05/27 02:32:31;;;;;;;;;;;;;;;;;;5049252;28;19946;-58
2023/05/27 02:34:57;;;;;;;;;;;;;;;;;;5043399;28;20222;-58
2023/05/27 02:37:24;;;;;;;;;;;;;;;;;;5042802;28;19999;-58
2023/05/27 02:39:50;;;;;;;;;;;;;;;;;;5041716;28;19912;-57
2023/05/27 02:42:16;;;;;;;;;;;;;;;;;;5048077;28;20001;-57
2023/05/27 02:44:42;;;;;;;;;;;;;;;;;;5050276;28;19912;-57
2023/05/27 02:47:08;;;;;;;;;;;;;;;;;;5030872;28;19936;-57
2023/05/27 02:49:34;;;;;;;;;;;;;;;;;;5050039;28;19956;-57
2023/05/27 02:52:00;;;;;;;;;;;;;;;;;;5043772;28;19908;-57
2023/05/27 02:54:26;;;;;;;;;;;;;;;;;;5048227;28;19988;-57
2023/05/27 02:56:52;;;;;;;;;;;;;;;;;;5049478;28;20383;-57
2023/05/27 02:59:18;;;;;;;;;;;;;;;;;;5050000;28;20024;-57
2023/05/27 03:01:44;;;;;;;;;;;;;;;;;;5048585;28;19955;-57
2023/05/27 03:04:10;;;;;;;;;;;;;;;;;;5049880;28;20017;-57
2023/05/27 03:06:36;;;;;;;;;;;;;;;;;;5047508;28;20018;-57
2023/05/27 03:09:03;;;;;;;;;;;;;;;;;;5048447;28;19932;-57
2023/05/27 03:11:29;;;;;;;;;;;;;;;;;;5029230;28;19919;-57
2023/05/27 03:13:55;;;;;;;;;;;;;;;;;;5047232;28;20062;-60
2023/05/27 03:16:22;;;;;;;;;;;;;;;;;;5047133;28;19923;-57
2023/05/27 03:18:48;;;;;;;;;;;;;;;;;;5049245;28;20003;-57
2023/05/27 03:21:14;;;;;;;;;;;;;;;;;;5043337;28;20345;-57
2023/05/27 03:23:40;;;;;;;;;;;;;;;;;;5047664;28;19924;-57
2023/05/27 03:26:06;;;;;;;;;;;;;;;;;;5030282;28;20019;-57
2023/05/27 03:28:32;;;;;;;;;;;;;;;;;;5047159;28;19956;-57
2023/05/27 03:30:58;;;;;;;;;;;;;;;;;;5047766;28;19948;-57
2023/05/27 03:33:24;;;;;;;;;;;;;;;;;;5049195;28;19916;-57
2023/05/27 03:35:50;;;;;;;;;;;;;;;;;;5046435;28;20337;-57
2023/05/27 03:38:16;;;;;;;;;;;;;;;;;;5048671;28;19952;-56
2023/05/27 03:40:42;;;;;;;;;;;;;;;;;;5046713;28;19936;-57
2023/05/27 03:43:08;;;;;;;;;;;;;;;;;;5048584;28;19947;-57
2023/05/27 03:45:34;;;;;;;;;;;;;;;;;;5048917;28;19948;-56
2023/05/27 03:48:00;;;;;;;;;;;;;;;;;;5048847;28;20006;-59
2023/05/27 03:50:26;;;;;;;;;;;;;;;;;;5046812;28;19951;-59
2023/05/27 03:52:52;;;;;;;;;;;;;;;;;;5048413;28;20043;-59
2023/05/27 03:55:20;;;;;;;;;;;;;;;;;;5047372;28;19915;-59
2023/05/27 03:57:46;;;;;;;;;;;;;;;;;;5047127;28;20330;-59
2023/05/27 04:00:12;;;;;;;;;;;;;;;;;;5048985;28;19944;-59
2023/05/27 04:02:38;;;;;;;;;;;;;;;;;;5046331;28;19959;-59
2023/05/27 04:05:04;;;;;;;;;;;;;;;;;;5047513;28;19909;-59
2023/05/27 04:07:31;;;;;;;;;;;;;;;;;;5046477;28;19970;-58
2023/05/27 04:09:57;;;;;;;;;;;;;;;;;;5047939;28;19944;-58
2023/05/27 04:12:23;;;;;;;;;;;;;;;;;;5047208;28;19975;-58
2023/05/27 04:14:49;;;;;;;;;;;;;;;;;;5030382;28;20379;-58
2023/05/27 04:17:15;;;;;;;;;;;;;;;;;;5047618;28;20439;-58
2023/05/27 04:19:41;;;;;;;;;;;;;;;;;;5045621;28;19913;-58
2023/05/27 04:22:07;;;;;;;;;;;;;;;;;;5045870;28;19909;-58
2023/05/27 04:24:33;;;;;;;;;;;;;;;;;;5046020;28;20558;-58
2023/05/27 04:26:59;;;;;;;;;;;;;;;;;;5043091;28;19965;-58
2023/05/27 04:29:25;;;;;;;;;;;;;;;;;;5047100;28;19959;-59
2023/05/27 04:31:51;;;;;;;;;;;;;;;;;;5040974;28;19948;-59
2023/05/27 04:34:17;;;;;;;;;;;;;;;;;;5044712;28;19944;-59
2023/05/27 04:36:49;;;;;;;;;;;;;;;;;;5043362;28;19944;-59
2023/05/27 04:39:16;;;;;;;;;;;;;;;;;;5047717;28;19936;-59
2023/05/27 04:41:42;;;;;;;;;;;;;;;;;;5047089;28;19956;-59
2023/05/27 04:44:08;;;;;;;;;;;;;;;;;;5046527;28;19953;-59
2023/05/27 04:46:34;;;;;;;;;;;;;;;;;;5047250;28;20463;-59
2023/05/27 04:49:01;;;;;;;;;;;;;;;;;;5046115;28;20428;-59
2023/05/27 04:51:27;;;;;;;;;;;;;;;;;;5047283;28;20303;-59
2023/05/27 04:53:56;;;;;;;;;;;;;;;;;;5048156;28;19912;-59
2023/05/27 04:56:22;;;;;;;;;;;;;;;;;;5045593;28;19916;-59
2023/05/27 04:58:48;;;;;;;;;;;;;;;;;;5045304;28;19962;-59
2023/05/27 05:01:17;;;;;;;;;;;;;;;;;;5046215;28;20391;-59
2023/05/27 05:03:51;;;;;;;;;;;;;;;;;;5026852;28;19920;-59
2023/05/27 05:06:17;;;;;;;;;;;;;;;;;;5046903;28;19970;-59
2023/05/27 05:08:43;;;;;;;;;;;;;;;;;;5045587;28;19955;-59
2023/05/27 05:11:09;;;;;;;;;;;;;;;;;;5027798;28;20283;-59
2023/05/27 05:13:35;;;;;;;;;;;;;;;;;;5027755;28;19951;-59
2023/05/27 05:16:01;;;;;;;;;;;;;;;;;;5046638;28;19923;-59
2023/05/27 05:18:28;;;;;;;;;;;;;;;;;;5045106;28;19916;-59
2023/05/27 05:20:54;;;;;;;;;;;;;;;;;;5043323;28;19916;-59
2023/05/27 05:23:20;;;;;;;;;;;;;;;;;;5044156;28;19913;-59
2023/05/27 05:25:47;;;;;;;;;;;;;;;;;;5042524;28;20329;-59
2023/05/27 05:28:13;;;;;;;;;;;;;;;;;;5044535;28;20381;-59
2023/05/27 05:30:39;;;;;;;;;;;;;;;;;;5045858;28;20009;-59
2023/05/27 05:33:05;;;;;;;;;;;;;;;;;;5045444;28;20357;-59
2023/05/27 05:35:31;;;;;;;;;;;;;;;;;;5042831;28;19957;-59
2023/05/27 05:37:57;;;;;;;;;;;;;;;;;;5043878;28;20098;-59
2023/05/27 05:40:23;;;;;;;;;;;;;;;;;;5045315;28;20007;-59
2023/05/27 05:42:49;;;;;;;;;;;;;;;;;;5046708;28;19919;-60
2023/05/27 05:45:15;;;;;;;;;;;;;;;;;;5046533;28;19908;-60
2023/05/27 05:47:42;;;;;;;;;;;;;;;;;;5023575;28;19995;-61
2023/05/27 05:50:10;;;;;;;;;;;;;;;;;;5028847;28;19904;-60
2023/05/27 05:52:36;;;;;;;;;;;;;;;;;;5046255;28;19917;-59
2023/05/27 05:55:03;;;;;;;;;;;;;;;;;;5048278;28;19963;-60
2023/05/27 05:57:31;;;;;;;;;;;;;;;;;;5048201;28;20224;-60
2023/05/27 05:59:57;;;;;;;;;;;;;;;;;;5044039;28;19913;-60
2023/05/27 06:02:25;;;;;;;;;;;;;;;;;;5050040;28;19915;-60
2023/05/27 06:04:51;;;;;;;;;;;;;;;;;;5049716;28;19912;-60
2023/05/27 06:07:17;;;;;;;;;;;;;;;;;;5048263;28;19942;-59
2023/05/27 06:09:43;;;;;;;;;;;;;;;;;;5049143;28;20376;-59
2023/05/27 06:12:09;;;;;;;;;;;;;;;;;;5032239;28;19939;-59
2023/05/27 06:14:35;;;;;;;;;;;;;;;;;;5050524;28;19972;-60
2023/05/27 06:17:01;;;;;;;;;;;;;;;;;;5046825;28;19924;-58
2023/05/27 06:19:27;;;;;;;;;;;;;;;;;;5046973;28;19948;-58
2023/05/27 06:21:53;;;;;;;;;;;;;;;;;;5048936;28;19916;-58
2023/05/27 06:24:19;;;;;;;;;;;;;;;;;;5049434;28;19959;-58
2023/05/27 06:26:45;;;;;;;;;;;;;;;;;;5049612;28;19948;-58
2023/05/27 06:29:11;;;;;;;;;;;;;;;;;;5048832;28;19983;-58
2023/05/27 06:31:37;;;;;;;;;;;;;;;;;;5047213;28;19958;-58
2023/05/27 06:34:03;;;;;;;;;;;;;;;;;;5049606;28;19920;-58
2023/05/27 06:36:29;;;;;;;;;;;;;;;;;;5044861;28;19959;-58
2023/05/27 06:38:55;;;;;;;;;;;;;;;;;;5048286;28;19944;-57
2023/05/27 06:41:21;;;;;;;;;;;;;;;;;;5048331;28;20432;-57
2023/05/27 06:43:47;;;;;;;;;;;;;;;;;;5047302;28;19915;-58
2023/05/27 06:46:13;;;;;;;;;;;;;;;;;;5047597;28;20308;-57
2023/05/27 06:48:39;;;;;;;;;;;;;;;;;;5026983;28;19913;-58
2023/05/27 06:51:05;;;;;;;;;;;;;;;;;;5045981;28;19935;-59
2023/05/27 06:53:31;;;;;;;;;;;;;;;;;;5044882;28;20312;-58
2023/05/27 06:55:57;;;;;;;;;;;;;;;;;;5047182;28;19958;-58
2023/05/27 06:58:23;;;;;;;;;;;;;;;;;;5046334;28;19944;-59
2023/05/27 07:00:49;;;;;;;;;;;;;;;;;;5049256;28;19913;-58
2023/05/27 07:03:15;;;;;;;;;;;;;;;;;;5042659;28;19913;-58
2023/05/27 07:05:41;;;;;;;;;;;;;;;;;;5046205;28;20002;-58
2023/05/27 07:08:07;;;;;;;;;;;;;;;;;;5045943;28;19958;-58
2023/05/27 07:10:33;;;;;;;;;;;;;;;;;;5045443;28;20362;-58
2023/05/27 07:12:59;;;;;;;;;;;;;;;;;;5047772;28;19956;-58
2023/05/27 07:15:25;;;;;;;;;;;;;;;;;;5048373;28;20005;-58
2023/05/27 07:17:51;;;;;;;;;;;;;;;;;;5049219;28;19909;-58
2023/05/27 07:20:17;;;;;;;;;;;;;;;;;;5046851;28;19913;-59
2023/05/27 07:22:43;;;;;;;;;;;;;;;;;;5047396;28;19913;-58
2023/05/27 07:25:09;;;;;;;;;;;;;;;;;;5047616;28;20272;-58
2023/05/27 07:27:35;;;;;;;;;;;;;;;;;;5047613;28;19912;-58
2023/05/27 07:30:01;;;;;;;;;;;;;;;;;;5049513;28;19959;-59
2023/05/27 07:32:27;;;;;;;;;;;;;;;;;;5045274;28;20018;-58
2023/05/27 07:34:53;;;;;;;;;;;;;;;;;;5044619;28;19995;-58
2023/05/27 07:37:19;;;;;;;;;;;;;;;;;;5049526;28;20003;-58
2023/05/27 07:39:45;;;;;;;;;;;;;;;;;;5040213;28;19935;-58
2023/05/27 07:42:11;;;;;;;;;;;;;;;;;;5041175;28;19943;-58
2023/05/27 07:44:37;;;;;;;;;;;;;;;;;;5048340;28;19944;-57
2023/05/27 07:47:03;;;;;;;;;;;;;;;;;;5047671;28;19959;-58
2023/05/27 07:49:28;;;;;;;;;;;;;;;;;;5047642;28;19912;-58
2023/05/27 07:51:54;;;;;;;;;;;;;;;;;;5046384;28;19962;-58
2023/05/27 07:54:21;;;;;;;;;;;;;;;;;;5044220;28;19924;-59
2023/05/27 07:56:46;;;;;;;;;;;;;;;;;;5046402;28;20447;-58
2023/05/27 07:59:13;;;;;;;;;;;;;;;;;;5044015;28;19923;-59
2023/05/27 08:01:39;;;;;;;;;;;;;;;;;;5041764;28;20144;-58
2023/05/27 08:04:04;;;;;;;;;;;;;;;;;;5049029;28;20379;-58
2023/05/27 08:06:30;;;;;;;;;;;;;;;;;;5044016;28;20047;-59
2023/05/27 08:08:59;;;;;;;;;;;;;;;;;;5049183;28;19972;-59
2023/05/27 08:11:25;;;;;;;;;;;;;;;;;;5043350;28;19919;-58
2023/05/27 08:13:51;;;;;;;;;;;;;;;;;;5047783;28;19943;-58
2023/05/27 08:16:17;;;;;;;;;;;;;;;;;;5047668;28;19971;-58
2023/05/27 08:18:43;;;;;;;;;;;;;;;;;;5042734;28;19947;-58
2023/05/27 08:21:09;;;;;;;;;;;;;;;;;;5045024;28;19947;-58
2023/05/27 08:23:38;;;;;;;;;;;;;;;;;;5026476;28;19908;-57
2023/05/27 08:26:04;;;;;;;;;;;;;;;;;;5024674;28;19963;-58
2023/05/27 08:28:34;;;;;;;;;;;;;;;;;;5047544;28;19955;-58
2023/05/27 08:31:00;;;;;;;;;;;;;;;;;;5047059;28;20012;-58
2023/05/27 08:33:26;;;;;;;;;;;;;;;;;;5029071;28;20467;-58
2023/05/27 08:35:52;;;;;;;;;;;;;;;;;;5038740;28;19927;-59
2023/05/27 08:38:18;;;;;;;;;;;;;;;;;;5045492;28;19912;-59
2023/05/27 08:40:44;;;;;;;;;;;;;;;;;;5033273;28;19913;-59
2023/05/27 08:43:10;;;;;;;;;;;;;;;;;;5039686;28;20438;-59
2023/05/27 08:45:36;;;;;;;;;;;;;;;;;;5039894;28;19991;-59
2023/05/27 08:48:02;;;;;;;;;;;;;;;;;;5039808;28;20382;-54
2023/05/27 08:50:28;;;;;;;;;;;;;;;;;;5033067;28;19913;-59
2023/05/27 08:52:55;;;;;;;;;;;;;;;;;;5040917;28;19924;-59
2023/05/27 08:55:21;;;;;;;;;;;;;;;;;;5036413;28;20045;-58
2023/05/27 08:57:48;;;;;;;;;;;;;;;;;;5047180;28;19947;-59
2023/05/27 09:00:14;;;;;;;;;;;;;;;;;;5045542;28;19916;-59
2023/05/27 09:02:40;;;;;;;;;;;;;;;;;;5044978;28;19919;-59
2023/05/27 09:05:07;;;;;;;;;;;;;;;;;;5041235;28;19944;-60
2023/05/27 09:07:33;;;;;;;;;;;;;;;;;;5043122;28;19978;-59
2023/05/27 09:09:59;;;;;;;;;;;;;;;;;;5040762;28;19978;-59
2023/05/27 09:12:25;;;;;;;;;;;;;;;;;;5024515;28;19920;-59
2023/05/27 09:14:52;;;;;;;;;;;;;;;;;;5040965;28;19909;-59
2023/05/27 09:17:18;;;;;;;;;;;;;;;;;;5042655;28;20010;-59
2023/05/27 09:19:44;;;;;;;;;;;;;;;;;;5042216;28;20024;-59
2023/05/27 09:22:10;;;;;;;;;;;;;;;;;;5043195;28;19962;-59
2023/05/27 09:24:36;;;;;;;;;;;;;;;;;;5041957;28;19912;-60
2023/05/27 09:27:02;;;;;;;;;;;;;;;;;;5039600;28;19958;-59
2023/05/27 09:29:28;;;;;;;;;;;;;;;;;;5040498;28;20362;-60
2023/05/27 09:31:55;;;;;;;;;;;;;;;;;;5048798;28;20028;-60
2023/05/27 09:34:21;;;;;;;;;;;;;;;;;;5045097;28;19916;-60
2023/05/27 09:36:47;;;;;;;;;;;;;;;;;;5041887;28;19913;-60
2023/05/27 09:39:13;;;;;;;;;;;;;;;;;;5046648;28;19998;-60
2023/05/27 09:41:39;;;;;;;;;;;;;;;;;;5046332;28;19912;-60
2023/05/27 09:44:06;;;;;;;;;;;;;;;;;;5041590;28;20341;-60
2023/05/27 09:46:32;;;;;;;;;;;;;;;;;;5042244;28;20797;-59
2023/05/27 09:48:58;;;;;;;;;;;;;;;;;;5043119;28;19912;-59
2023/05/27 09:51:24;;;;;;;;;;;;;;;;;;5045133;28;19912;-59
2023/05/27 09:53:50;;;;;;;;;;;;;;;;;;5044566;28;19920;-59
2023/05/27 09:56:16;;;;;;;;;;;;;;;;;;5046314;28;19951;-59
2023/05/27 09:58:42;;;;;;;;;;;;;;;;;;5043064;28;20004;-59
2023/05/27 10:01:08;;;;;;;;;;;;;;;;;;5038344;28;19944;-60
2023/05/27 10:03:35;;;;;;;;;;;;;;;;;;5036419;28;19956;-60
2023/05/27 10:06:01;;;;;;;;;;;;;;;;;;5044496;28;19913;-60
2023/05/27 10:08:27;;;;;;;;;;;;;;;;;;5050148;28;20380;-60
2023/05/27 10:10:53;;;;;;;;;;;;;;;;;;5044375;28;19947;-60
2023/05/27 10:13:20;;;;;;;;;;;;;;;;;;5043248;28;20269;-60
2023/05/27 10:15:45;;;;;;;;;;;;;;;;;;5041807;28;19913;-60
2023/05/27 10:18:13;;;;;;;;;;;;;;;;;;5045470;28;20323;-60
2023/05/27 10:20:39;;;;;;;;;;;;;;;;;;5043319;28;20384;-60
2023/05/27 10:23:05;;;;;;;;;;;;;;;;;;5044011;28;19974;-60
2023/05/27 10:25:31;;;;;;;;;;;;;;;;;;5044634;28;19995;-60
2023/05/27 10:27:57;;;;;;;;;;;;;;;;;;5043356;28;19912;-60
2023/05/27 10:30:23;;;;;;;;;;;;;;;;;;5042885;28;20367;-60
2023/05/27 10:32:52;;;;;;;;;;;;;;;;;;5044314;28;20357;-60
2023/05/27 10:35:18;;;;;;;;;;;;;;;;;;5044277;28;19909;-61
2023/05/27 10:37:44;;;;;;;;;;;;;;;;;;5043640;28;20384;-60
2023/05/27 10:40:11;;;;;;;;;;;;;;;;;;5023148;28;20011;-60
2023/05/27 10:42:37;;;;;;;;;;;;;;;;;;5045085;28;19912;-60
2023/05/27 10:45:04;;;;;;;;;;;;;;;;;;5045180;28;19913;-60
2023/05/27 10:47:30;;;;;;;;;;;;;;;;;;5043384;28;20007;-60
2023/05/27 10:49:56;;;;;;;;;;;;;;;;;;5026719;28;20046;-60
2023/05/27 10:52:22;;;;;;;;;;;;;;;;;;5044004;28;19959;-60
2023/05/27 10:54:50;;;;;;;;;;;;;;;;;;5045530;28;19931;-60
2023/05/27 10:57:16;;;;;;;;;;;;;;;;;;5047561;28;20288;-58
2023/05/27 10:59:42;;;;;;;;;;;;;;;;;;5044520;28;19927;-57
2023/05/27 11:02:08;;;;;;;;;;;;;;;;;;5046322;28;20395;-58
2023/05/27 11:04:34;;;;;;;;;;;;;;;;;;5043619;28;19912;-58
2023/05/27 11:07:01;;;;;;;;;;;;;;;;;;5047497;28;19913;-58
2023/05/27 11:09:27;;;;;;;;;;;;;;;;;;5047752;28;19909;-57
2023/05/27 11:11:53;;;;;;;;;;;;;;;;;;5047277;28;20595;-58
2023/05/27 11:14:19;;;;;;;;;;;;;;;;;;5045504;28;19912;-56
2023/05/27 11:16:45;;;;;;;;;;;;;;;;;;5043724;28;20934;-57
2023/05/27 11:19:11;;;;;;;;;;;;;;;;;;5043709;28;19952;-57
2023/05/27 11:21:37;;;;;;;;;;;;;;;;;;5042843;28;20125;-57
2023/05/27 11:24:03;;;;;;;;;;;;;;;;;;5042339;28;20132;-57
2023/05/27 11:26:29;;;;;;;;;;;;;;;;;;5046234;28;20115;-57
2023/05/27 11:28:55;;;;;;;;;;;;;;;;;;5047089;28;20057;-56
2023/05/27 11:31:21;;;;;;;;;;;;;;;;;;5042095;28;19971;-56
2023/05/27 11:33:47;;;;;;;;;;;;;;;;;;5046000;28;19923;-56
2023/05/27 11:36:13;;;;;;;;;;;;;;;;;;5044820;28;20361;-54
2023/05/27 11:38:39;;;;;;;;;;;;;;;;;;5046333;28;19920;-55
2023/05/27 11:41:05;;;;;;;;;;;;;;;;;;5043725;28;19927;-56
2023/05/27 11:43:32;;;;;;;;;;;;;;;;;;5046359;28;20855;-55
2023/05/27 11:45:57;;;;;;;;;;;;;;;;;;5045396;28;19981;-55
2023/05/27 11:48:26;;;;;;;;;;;;;;;;;;5046232;28;20384;-55
2023/05/27 11:50:52;;;;;;;;;;;;;;;;;;5024001;28;19948;-56
2023/05/27 11:53:18;;;;;;;;;;;;;;;;;;5044441;28;19916;-55
2023/05/27 11:55:44;;;;;;;;;;;;;;;;;;5029022;28;19939;-57
2023/05/27 11:58:10;;;;;;;;;;;;;;;;;;5045727;28;19913;-56
2023/05/27 12:00:37;;;;;;;;;;;;;;;;;;5045166;28;20311;-57
2023/05/27 12:03:03;;;;;;;;;;;;;;;;;;5047146;28;20304;-57
2023/05/27 12:05:28;;;;;;;;;;;;;;;;;;5039683;28;19959;-57
2023/05/27 12:07:54;;;;;;;;;;;;;;;;;;5045002;28;19951;-57
2023/05/27 12:10:21;;;;;;;;;;;;;;;;;;5043816;28;20089;-57
2023/05/27 12:12:47;;;;;;;;;;;;;;;;;;5047431;28;19967;-55
2023/05/27 12:15:13;;;;;;;;;;;;;;;;;;5044834;28;19923;-56
2023/05/27 12:17:39;;;;;;;;;;;;;;;;;;5038386;28;19912;-59
2023/05/27 12:20:09;;;;;;;;;;;;;;;;;;5045573;28;20332;-59
2023/05/27 12:22:35;;;;;;;;;;;;;;;;;;5040743;28;20371;-60
2023/05/27 12:25:01;;;;;;;;;;;;;;;;;;5040013;28;20028;-59
2023/05/27 12:27:28;;;;;;;;;;;;;;;;;;5041701;28;19995;-59
2023/05/27 12:29:54;;;;;;;;;;;;;;;;;;5043986;28;20390;-59
2023/05/27 12:32:20;;;;;;;;;;;;;;;;;;5043936;28;19923;-59
2023/05/27 12:34:49;;;;;;;;;;;;;;;;;;5042153;28;19920;-60
2023/05/27 12:37:16;;;;;;;;;;;;;;;;;;5042332;28;19916;-59
2023/05/27 12:39:42;;;;;;;;;;;;;;;;;;5044492;28;19915;-60
2023/05/27 12:42:08;;;;;;;;;;;;;;;;;;5043106;28;19913;-59
2023/05/27 12:44:34;;;;;;;;;;;;;;;;;;5036859;28;20371;-59
2023/05/27 12:47:00;;;;;;;;;;;;;;;;;;5046169;28;19966;-59
2023/05/27 12:49:26;;;;;;;;;;;;;;;;;;5045009;28;20313;-58
2023/05/27 12:51:52;;;;;;;;;;;;;;;;;;5043035;28;19952;-58
2023/05/27 12:54:18;;;;;;;;;;;;;;;;;;5041245;28;20013;-56
2023/05/27 12:56:44;;;;;;;;;;;;;;;;;;5046696;28;20345;-56
2023/05/27 12:59:10;;;;;;;;;;;;;;;;;;5044857;28;19917;-56
2023/05/27 13:01:36;;;;;;;;;;;;;;;;;;5040691;28;19970;-57
2023/05/27 13:04:02;;;;;;;;;;;;;;;;;;5042393;28;19959;-56
2023/05/27 13:06:28;;;;;;;;;;;;;;;;;;5042601;28;19962;-56
2023/05/27 13:08:54;;;;;;;;;;;;;;;;;;5045209;28;20351;-55
2023/05/27 13:11:21;;;;;;;;;;;;;;;;;;5040356;28;19913;-55
2023/05/27 13:13:47;;;;;;;;;;;;;;;;;;5041436;28;21620;-55
2023/05/27 13:16:13;;;;;;;;;;;;;;;;;;5044455;28;19995;-55
2023/05/27 13:18:39;;;;;;;;;;;;;;;;;;5044548;28;20364;-55
2023/05/27 13:21:06;;;;;;;;;;;;;;;;;;5043293;28;19923;-58
2023/05/27 13:23:32;;;;;;;;;;;;;;;;;;5044570;28;19920;-55
2023/05/27 13:25:58;;;;;;;;;;;;;;;;;;5040112;28;20375;-55
2023/05/27 13:28:24;;;;;;;;;;;;;;;;;;5036768;28;19920;-56
2023/05/27 13:30:50;;;;;;;;;;;;;;;;;;5036078;28;20003;-55
2023/05/27 13:33:16;;;;;;;;;;;;;;;;;;5038721;28;20015;-55
2023/05/27 13:35:42;;;;;;;;;;;;;;;;;;5042331;28;20372;-55
2023/05/27 13:38:12;;;;;;;;;;;;;;;;;;5046115;28;19912;-54
2023/05/27 13:40:38;;;;;;;;;;;;;;;;;;5043195;28;19951;-54
2023/05/27 13:43:04;;;;;;;;;;;;;;;;;;5045605;28;20494;-57
2023/05/27 13:45:30;;;;;;;;;;;;;;;;;;5047018;28;19913;-55
2023/05/27 13:47:56;;;;;;;;;;;;;;;;;;5037783;28;20306;-55
2023/05/27 13:50:22;;;;;;;;;;;;;;;;;;5040161;28;19955;-55
2023/05/27 13:52:48;;;;;;;;;;;;;;;;;;5043406;28;19916;-55
2023/05/27 13:55:14;;;;;;;;;;;;;;;;;;5056069;28;20008;-55
2023/05/27 13:57:40;;;;;;;;;;;;;;;;;;5046320;28;20870;-55
2023/05/27 14:00:06;;;;;;;;;;;;;;;;;;5042211;28;19912;-55
2023/05/27 14:02:32;;;;;;;;;;;;;;;;;;5042510;28;20035;-56
2023/05/27 14:04:58;;;;;;;;;;;;;;;;;;5044420;28;19931;-56
2023/05/27 14:07:25;;;;;;;;;;;;;;;;;;5042811;28;19919;-56
2023/05/27 14:09:50;;;;;;;;;;;;;;;;;;5038424;28;19908;-56
2023/05/27 14:12:16;;;;;;;;;;;;;;;;;;5046327;28;20397;-56
2023/05/27 14:14:42;;;;;;;;;;;;;;;;;;5045211;28;19927;-56
2023/05/27 14:17:08;;;;;;;;;;;;;;;;;;5047310;28;19912;-56
2023/05/27 14:19:34;;;;;;;;;;;;;;;;;;5049183;28;19963;-56
2023/05/27 14:22:00;;;;;;;;;;;;;;;;;;5051341;28;20007;-56
2023/05/27 14:24:26;;;;;;;;;;;;;;;;;;5048508;28;20323;-55
2023/05/27 14:26:52;;;;;;;;;;;;;;;;;;5047959;28;19960;-55
2023/05/27 14:29:18;;;;;;;;;;;;;;;;;;5049681;28;19925;-56
2023/05/27 14:31:45;;;;;;;;;;;;;;;;;;5048899;28;20433;-55
2023/05/27 14:34:11;;;;;;;;;;;;;;;;;;5044652;28;19917;-56
2023/05/27 14:36:37;;;;;;;;;;;;;;;;;;5050392;28;19912;-55
2023/05/27 14:39:05;;;;;;;;;;;;;;;;;;5050569;28;20375;-56
2023/05/27 14:41:31;;;;;;;;;;;;;;;;;;5046793;28;19909;-56
2023/05/27 14:43:57;;;;;;;;;;;;;;;;;;5048287;28;20418;-55
2023/05/27 14:46:23;;;;;;;;;;;;;;;;;;5050206;28;19960;-55
2023/05/27 14:48:49;;;;;;;;;;;;;;;;;;5031230;28;19944;-55
2023/05/27 14:51:16;;;;;;;;;;;;;;;;;;5048992;28;20402;-56
2023/05/27 14:53:42;;;;;;;;;;;;;;;;;;5048799;28;20058;-56
2023/05/27 14:56:08;;;;;;;;;;;;;;;;;;5045834;28;20000;-55
2023/05/27 14:58:34;;;;;;;;;;;;;;;;;;5047860;28;19908;-56
2023/05/27 15:01:00;;;;;;;;;;;;;;;;;;5048493;28;19913;-56
2023/05/27 15:03:29;;;;;;;;;;;;;;;;;;5045862;28;19912;-56
2023/05/27 15:05:57;;;;;;;;;;;;;;;;;;5044926;28;20054;-55
2023/05/27 15:08:23;;;;;;;;;;;;;;;;;;5044737;28;19913;-56
2023/05/27 15:10:49;;;;;;;;;;;;;;;;;;5048429;28;19923;-55
2023/05/27 15:13:16;;;;;;;;;;;;;;;;;;5046567;28;20087;-56
2023/05/27 15:15:43;;;;;;;;;;;;;;;;;;5046484;28;19919;-56
2023/05/27 15:18:09;;;;;;;;;;;;;;;;;;5046257;28;20060;-55
2023/05/27 15:20:35;;;;;;;;;;;;;;;;;;5046646;28;19981;-56
2023/05/27 15:23:01;;;;;;;;;;;;;;;;;;5048641;28;19985;-56
2023/05/27 15:25:27;;;;;;;;;;;;;;;;;;5045915;28;19921;-55
2023/05/27 15:27:53;;;;;;;;;;;;;;;;;;5050687;28;20058;-56
2023/05/27 15:30:19;;;;;;;;;;;;;;;;;;5062681;28;19977;-55
2023/05/27 15:32:46;;;;;;;;;;;;;;;;;;5064064;28;19916;-57
2023/05/27 15:35:11;;;;;;;;;;;;;;;;;;5060461;28;19951;-55
2023/05/27 15:37:38;;;;;;;;;;;;;;;;;;5056493;28;20006;-55
2023/05/27 15:40:05;;;;;;;;;;;;;;;;;;5064553;28;20042;-55
2023/05/27 15:42:31;;;;;;;;;;;;;;;;;;5060676;28;20065;-55
2023/05/27 15:44:57;;;;;;;;;;;;;;;;;;5061273;28;20011;-55
2023/05/27 15:47:23;;;;;;;;;;;;;;;;;;5065215;28;20274;-55
2023/05/27 15:49:49;;;;;;;;;;;;;;;;;;5064743;28;19968;-53
2023/05/27 15:52:16;;;;;;;;;;;;;;;;;;5063443;28;19993;-53
2023/05/27 15:54:42;;;;;;;;;;;;;;;;;;5061790;28;20629;-53
2023/05/27 15:57:08;;;;;;;;;;;;;;;;;;5061750;28;19920;-54
2023/05/27 15:59:34;;;;;;;;;;;;;;;;;;5060177;28;19908;-55
2023/05/27 16:02:00;;;;;;;;;;;;;;;;;;5063531;28;20027;-55
2023/05/27 16:04:27;;;;;;;;;;;;;;;;;;5067686;28;20328;-55
2023/05/27 16:06:52;;;;;;;;;;;;;;;;;;5064043;28;20008;-55
2023/05/27 16:09:19;;;;;;;;;;;;;;;;;;5061187;28;20650;-54
2023/05/27 16:11:45;;;;;;;;;;;;;;;;;;5062351;28;20022;-54
2023/05/27 16:14:11;;;;;;;;;;;;;;;;;;5066940;28;20038;-55
2023/05/27 16:16:37;;;;;;;;;;;;;;;;;;5063781;28;19944;-55
2023/05/27 16:19:02;;;;;;;;;;;;;;;;;;5067067;28;19986;-52
2023/05/27 16:21:29;;;;;;;;;;;;;;;;;;5063587;28;20275;-54
2023/05/27 16:23:55;;;;;;;;;;;;;;;;;;5066466;28;19908;-54
2023/05/27 16:26:21;;;;;;;;;;;;;;;;;;5064320;28;20040;-54
2023/05/27 16:28:47;;;;;;;;;;;;;;;;;;5050706;28;20032;-54
2023/05/27 16:31:13;;;;;;;;;;;;;;;;;;5047649;28;19963;-55
2023/05/27 16:33:39;;;;;;;;;;;;;;;;;;5048128;28;19952;-55
2023/05/27 16:36:06;;;;;;;;;;;;;;;;;;5029185;28;19948;-55
2023/05/27 16:38:32;;;;;;;;;;;;;;;;;;5042725;28;19912;-55